Foxy 3 — WDH4123 — position and weather

sailwx.info

Track history (hours):
 
Tides and Currents Weather Stations Pressure Air Temp Water Temp Dewpoint Dewpoint Depression Visibility Wind Speed Wind Dir Waves Ship Positions

Foxy 3

Owner: Fox Marine Corporation, Easton, PA. More information available from US FCC via Universal Licensing System and Coast Guard Vessel Documentation Center.

Last reported at 2018-Jul-21 19:22 UTC. Time now 2018-Jul-22 16:42 UTC.
Position N 40°39' W 074°07'.

MMSI: 367614410.

Date/timePositionNaut miles runAvg speedWind from/ knotsBaromVisibWave heightAir tempDewpointWater temp
2018-Jul-21 19:22N 40°39' W 074°07'3 7.8
2018-Jul-21 19:00N 40°40' W 074°04'0 0.8
2018-Jul-21 18:30N 40°41' W 074°04'3 5.6
2018-Jul-21 18:00N 40°40' W 074°00'0 0.5
2018-Jul-21 17:30N 40°40' W 073°60'0 0.6
2018-Jul-21 17:00N 40°41' W 073°60'0 0.8
2018-Jul-21 16:30N 40°40' W 073°60'0 0.0
2018-Jul-21 16:00N 40°40' W 073°60'0 0.1
2018-Jul-21 15:30N 40°40' W 073°60'1 2.7
2018-Jul-21 15:00N 40°40' W 074°02'3 5.5
2018-Jul-21 14:30N 40°41' W 074°05'6 6.2
2018-Jul-21 13:30N 40°45' W 073°58'1 0.2
2018-Jul-21 08:42N 40°46' W 073°57'2 9.2
2018-Jul-21 08:30N 40°44' W 073°58'4 8.6
2018-Jul-21 08:00N 40°41' W 074°02'4 7.8
2018-Jul-21 07:26N 40°39' W 074°07'0 0.0
2018-Jul-20 14:23N 40°39' W 074°07'3 7.5
2018-Jul-20 14:00N 40°40' W 074°04'2 4.0
2018-Jul-20 13:30N 40°41' W 074°02'4 8.7
2018-Jul-20 13:00N 40°45' W 073°58'510.0
2018-Jul-20 12:29N 40°48' W 073°53'4 1.8
2018-Jul-20 10:03N 40°49' W 073°48'0 6.6
2018-Jul-20 09:59N 40°49' W 073°47'2 4.6
2018-Jul-20 09:29N 40°48' W 073°50'2 4.9
2018-Jul-20 08:59N 40°48' W 073°53'4 7.9
2018-Jul-20 08:30N 40°46' W 073°57'3 7.1
2018-Jul-20 08:00N 40°42' W 073°59'4 8.0
2018-Jul-20 07:30N 40°40' W 074°03'3 6.5
2018-Jul-20 07:00N 40°38' W 074°07'0 0.0
2018-Jul-20 06:30N 40°39' W 074°07'0 0.0
2018-Jul-20 06:01N 40°39' W 074°07'0 0.0
2018-Jul-20 05:30N 40°39' W 074°07'0 0.0
2018-Jul-20 05:00N 40°39' W 074°07'0 0.0
2018-Jul-20 04:30N 40°39' W 074°07'0 0.0
2018-Jul-20 04:00N 40°39' W 074°07'0 0.0
2018-Jul-20 03:30N 40°39' W 074°07'0 0.0
2018-Jul-20 03:00N 40°39' W 074°07'0 0.7
2018-Jul-20 02:30N 40°39' W 074°07'3 6.9
2018-Jul-20 02:00N 40°41' W 074°03'2 4.9
2018-Jul-20 01:30N 40°39' W 074°05'3 5.3
2018-Jul-20 01:00N 40°39' W 074°09'3 3.1
2018-Jul-20 00:04N 40°42' W 074°09'0 0.5
2018-Jul-19 23:53N 40°42' W 074°09'2 4.3
2018-Jul-19 23:30N 40°40' W 074°08'2 3.0
2018-Jul-19 22:57N 40°39' W 074°07'2 4.9
2018-Jul-19 22:30N 40°39' W 074°05'3 6.3
2018-Jul-19 22:00N 40°41' W 074°01'4 7.3
2018-Jul-19 21:29N 40°44' W 073°58'2 3.7
2018-Jul-19 20:59N 40°44' W 073°56'0 0.3
2018-Jul-19 19:30N 40°43' W 073°56'2 3.7
2018-Jul-19 19:00N 40°43' W 073°58'4 8.2
2018-Jul-19 18:30N 40°41' W 074°02'4 7.2
2018-Jul-19 18:00N 40°39' W 074°06'1 0.2
2018-Jul-19 13:41N 40°39' W 074°07'1 6.3
2018-Jul-19 13:30N 40°39' W 074°09'3 5.8
2018-Jul-19 12:58N 40°42' W 074°09'1 2.4
2018-Jul-19 12:25N 40°41' W 074°08'2 4.0
2018-Jul-19 11:56N 40°39' W 074°09'2 4.0
2018-Jul-19 11:30N 40°39' W 074°07'2 4.1
2018-Jul-19 11:00N 40°39' W 074°04'3 6.0
2018-Jul-19 10:30N 40°41' W 074°01'3 6.7
2018-Jul-19 10:00N 40°44' W 073°58'2 0.8
2018-Jul-19 07:20N 40°46' W 073°57'3 7.8
2018-Jul-19 07:00N 40°43' W 073°58'4 8.0
2018-Jul-19 06:30N 40°40' W 074°02'4 0.5
2018-Jul-18 22:12N 40°39' W 074°07'1 4.0
2018-Jul-18 21:53N 40°39' W 074°09'2 6.2
2018-Jul-18 21:30N 40°41' W 074°08'4 7.0
2018-Jul-18 21:00N 40°44' W 074°05'3 0.6
2018-Jul-18 16:08N 40°47' W 074°05'1 3.7
2018-Jul-18 15:58N 40°47' W 074°05'1 2.5
2018-Jul-18 15:28N 40°45' W 074°06'1 1.3
2018-Jul-18 15:00N 40°45' W 074°05'1 1.2
2018-Jul-18 14:30N 40°45' W 074°05'2 1.5
2018-Jul-18 13:27N 40°43' W 074°06'1 2.7
2018-Jul-18 12:59N 40°42' W 074°07'2 3.8
2018-Jul-18 12:30N 40°41' W 074°08'2 1.0
2018-Jul-18 10:24N 40°39' W 074°07'  
2018-Jul-15 16:39N 40°39' W 074°07'2 5.6
2018-Jul-15 16:15N 40°39' W 074°05'2 6.7
2018-Jul-15 15:59N 40°40' W 074°02'2 4.0
2018-Jul-15 15:28N 40°40' W 073°60'1 2.7
2018-Jul-15 15:00N 40°40' W 074°01'3 5.8
2018-Jul-15 14:30N 40°41' W 074°05'0 0.4
2018-Jul-15 14:00N 40°41' W 074°04'3 5.4
2018-Jul-15 13:30N 40°40' W 074°01'1 2.0
2018-Jul-15 12:54N 40°40' W 073°60'1 1.6
2018-Jul-15 12:30N 40°40' W 074°00'4 7.1
2018-Jul-15 12:00N 40°39' W 074°05'  
Track history (hours):
 
Tides and Currents Weather Stations Pressure Air Temp Water Temp Dewpoint Dewpoint Depression Visibility Wind Speed Wind Dir Waves Ship Positions

Foxy 3

Owner: Fox Marine Corporation, Easton, PA. More information available from US FCC via Universal Licensing System and Coast Guard Vessel Documentation Center.

Last reported at 2018-Jul-21 19:22 UTC. Time now 2018-Jul-22 16:42 UTC.
Position N 40°39' W 074°07'.

MMSI: 367614410.

Date/timePositionNaut miles runAvg speedWind from/ knotsBaromVisibWave heightAir tempDewpointWater temp
2018-Jul-21 19:22N 40°39' W 074°07'3 7.8
2018-Jul-21 19:00N 40°40' W 074°04'0 0.8
2018-Jul-21 18:30N 40°41' W 074°04'3 5.6
2018-Jul-21 18:00N 40°40' W 074°00'0 0.5
2018-Jul-21 17:30N 40°40' W 073°60'0 0.6
2018-Jul-21 17:00N 40°41' W 073°60'0 0.8
2018-Jul-21 16:30N 40°40' W 073°60'0 0.0
2018-Jul-21 16:00N 40°40' W 073°60'0 0.1
2018-Jul-21 15:30N 40°40' W 073°60'1 2.7
2018-Jul-21 15:00N 40°40' W 074°02'3 5.5
2018-Jul-21 14:30N 40°41' W 074°05'6 6.2
2018-Jul-21 13:30N 40°45' W 073°58'1 0.2
2018-Jul-21 08:42N 40°46' W 073°57'2 9.2
2018-Jul-21 08:30N 40°44' W 073°58'4 8.6
2018-Jul-21 08:00N 40°41' W 074°02'4 7.8
2018-Jul-21 07:26N 40°39' W 074°07'0 0.0
2018-Jul-20 14:23N 40°39' W 074°07'3 7.5
2018-Jul-20 14:00N 40°40' W 074°04'2 4.0
2018-Jul-20 13:30N 40°41' W 074°02'4 8.7
2018-Jul-20 13:00N 40°45' W 073°58'510.0
2018-Jul-20 12:29N 40°48' W 073°53'4 1.8
2018-Jul-20 10:03N 40°49' W 073°48'0 6.6
2018-Jul-20 09:59N 40°49' W 073°47'2 4.6
2018-Jul-20 09:29N 40°48' W 073°50'2 4.9
2018-Jul-20 08:59N 40°48' W 073°53'4 7.9
2018-Jul-20 08:30N 40°46' W 073°57'3 7.1
2018-Jul-20 08:00N 40°42' W 073°59'4 8.0
2018-Jul-20 07:30N 40°40' W 074°03'3 6.5
2018-Jul-20 07:00N 40°38' W 074°07'0 0.0
2018-Jul-20 06:30N 40°39' W 074°07'0 0.0
2018-Jul-20 06:01N 40°39' W 074°07'0 0.0
2018-Jul-20 05:30N 40°39' W 074°07'0 0.0
2018-Jul-20 05:00N 40°39' W 074°07'0 0.0
2018-Jul-20 04:30N 40°39' W 074°07'0 0.0
2018-Jul-20 04:00N 40°39' W 074°07'0 0.0
2018-Jul-20 03:30N 40°39' W 074°07'0 0.0
2018-Jul-20 03:00N 40°39' W 074°07'0 0.7
2018-Jul-20 02:30N 40°39' W 074°07'3 6.9
2018-Jul-20 02:00N 40°41' W 074°03'2 4.9
2018-Jul-20 01:30N 40°39' W 074°05'3 5.3
2018-Jul-20 01:00N 40°39' W 074°09'3 3.1
2018-Jul-20 00:04N 40°42' W 074°09'0 0.5
2018-Jul-19 23:53N 40°42' W 074°09'2 4.3
2018-Jul-19 23:30N 40°40' W 074°08'2 3.0
2018-Jul-19 22:57N 40°39' W 074°07'2 4.9
2018-Jul-19 22:30N 40°39' W 074°05'3 6.3
2018-Jul-19 22:00N 40°41' W 074°01'4 7.3
2018-Jul-19 21:29N 40°44' W 073°58'2 3.7
2018-Jul-19 20:59N 40°44' W 073°56'0 0.3
2018-Jul-19 19:30N 40°43' W 073°56'2 3.7
2018-Jul-19 19:00N 40°43' W 073°58'4 8.2
2018-Jul-19 18:30N 40°41' W 074°02'4 7.2
2018-Jul-19 18:00N 40°39' W 074°06'1 0.2
2018-Jul-19 13:41N 40°39' W 074°07'1 6.3
2018-Jul-19 13:30N 40°39' W 074°09'3 5.8
2018-Jul-19 12:58N 40°42' W 074°09'1 2.4
2018-Jul-19 12:25N 40°41' W 074°08'2 4.0
2018-Jul-19 11:56N 40°39' W 074°09'2 4.0
2018-Jul-19 11:30N 40°39' W 074°07'2 4.1
2018-Jul-19 11:00N 40°39' W 074°04'3 6.0
2018-Jul-19 10:30N 40°41' W 074°01'3 6.7
2018-Jul-19 10:00N 40°44' W 073°58'2 0.8
2018-Jul-19 07:20N 40°46' W 073°57'3 7.8
2018-Jul-19 07:00N 40°43' W 073°58'4 8.0
2018-Jul-19 06:30N 40°40' W 074°02'4 0.5
2018-Jul-18 22:12N 40°39' W 074°07'1 4.0
2018-Jul-18 21:53N 40°39' W 074°09'2 6.2
2018-Jul-18 21:30N 40°41' W 074°08'4 7.0
2018-Jul-18 21:00N 40°44' W 074°05'3 0.6
2018-Jul-18 16:08N 40°47' W 074°05'1 3.7
2018-Jul-18 15:58N 40°47' W 074°05'1 2.5
2018-Jul-18 15:28N 40°45' W 074°06'1 1.3
2018-Jul-18 15:00N 40°45' W 074°05'1 1.2
2018-Jul-18 14:30N 40°45' W 074°05'2 1.5
2018-Jul-18 13:27N 40°43' W 074°06'1 2.7
2018-Jul-18 12:59N 40°42' W 074°07'2 3.8
2018-Jul-18 12:30N 40°41' W 074°08'2 1.0
2018-Jul-18 10:24N 40°39' W 074°07'  
2018-Jul-15 16:39N 40°39' W 074°07'2 5.6
2018-Jul-15 16:15N 40°39' W 074°05'2 6.7
2018-Jul-15 15:59N 40°40' W 074°02'2 4.0
2018-Jul-15 15:28N 40°40' W 073°60'1 2.7
2018-Jul-15 15:00N 40°40' W 074°01'3 5.8
2018-Jul-15 14:30N 40°41' W 074°05'0 0.4
2018-Jul-15 14:00N 40°41' W 074°04'3 5.4
2018-Jul-15 13:30N 40°40' W 074°01'1 2.0
2018-Jul-15 12:54N 40°40' W 073°60'1 1.6
2018-Jul-15 12:30N 40°40' W 074°00'4 7.1
2018-Jul-15 12:00N 40°39' W 074°05'  

Dump ship's entire track history